sensor_id;sensor_type;location;lat;lon;timestamp;P1;durP1;ratioP1;P2;durP2;ratioP2
27999;SDS011;15328;50.860;10.562;2023-07-20T00:04:44;3.47;;;1.90;;
27999;SDS011;15328;50.860;10.562;2023-07-20T00:09:44;5.88;;;1.60;;
27999;SDS011;15328;50.860;10.562;2023-07-20T00:14:44;2.27;;;1.67;;
27999;SDS011;15328;50.860;10.562;2023-07-20T00:19:45;2.90;;;1.83;;
27999;SDS011;15328;50.860;10.562;2023-07-20T00:24:45;5.30;;;1.73;;
27999;SDS011;15328;50.860;10.562;2023-07-20T00:29:45;2.20;;;1.80;;
27999;SDS011;15328;50.860;10.562;2023-07-20T00:34:46;2.47;;;1.97;;
27999;SDS011;15328;50.860;10.562;2023-07-20T00:39:46;2.97;;;2.13;;
27999;SDS011;15328;50.860;10.562;2023-07-20T00:44:47;3.50;;;1.90;;
27999;SDS011;15328;50.860;10.562;2023-07-20T00:49:47;2.37;;;1.90;;
27999;SDS011;15328;50.860;10.562;2023-07-20T00:54:48;3.25;;;2.05;;
27999;SDS011;15328;50.860;10.562;2023-07-20T00:59:49;3.85;;;2.45;;
27999;SDS011;15328;50.860;10.562;2023-07-20T01:04:49;3.97;;;2.58;;
27999;SDS011;15328;50.860;10.562;2023-07-20T01:10:24;3.60;;;2.45;;
27999;SDS011;15328;50.860;10.562;2023-07-20T01:15:29;2.85;;;2.55;;
27999;SDS011;15328;50.860;10.562;2023-07-20T01:20:30;4.25;;;2.20;;
27999;SDS011;15328;50.860;10.562;2023-07-20T01:36:26;3.85;;;2.60;;
27999;SDS011;15328;50.860;10.562;2023-07-20T01:41:29;3.67;;;2.75;;
27999;SDS011;15328;50.860;10.562;2023-07-20T01:46:30;3.20;;;2.45;;
27999;SDS011;15328;50.860;10.562;2023-07-20T01:51:30;4.80;;;2.83;;
27999;SDS011;15328;50.860;10.562;2023-07-20T01:56:30;4.63;;;2.63;;
27999;SDS011;15328;50.860;10.562;2023-07-20T02:01:31;5.00;;;2.57;;
27999;SDS011;15328;50.860;10.562;2023-07-20T02:06:31;7.47;;;2.60;;
27999;SDS011;15328;50.860;10.562;2023-07-20T02:11:31;3.90;;;2.43;;
27999;SDS011;15328;50.860;10.562;2023-07-20T02:16:31;3.83;;;2.90;;
27999;SDS011;15328;50.860;10.562;2023-07-20T02:21:32;4.15;;;2.72;;
27999;SDS011;15328;50.860;10.562;2023-07-20T02:26:33;3.20;;;2.65;;
27999;SDS011;15328;50.860;10.562;2023-07-20T02:31:33;4.00;;;2.33;;
27999;SDS011;15328;50.860;10.562;2023-07-20T02:36:34;3.27;;;2.70;;
27999;SDS011;15328;50.860;10.562;2023-07-20T02:41:35;3.45;;;2.58;;
27999;SDS011;15328;50.860;10.562;2023-07-20T02:46:35;5.07;;;3.07;;
27999;SDS011;15328;50.860;10.562;2023-07-20T02:51:35;3.63;;;2.70;;
27999;SDS011;15328;50.860;10.562;2023-07-20T02:56:36;4.57;;;2.90;;
27999;SDS011;15328;50.860;10.562;2023-07-20T03:01:36;3.23;;;2.47;;
27999;SDS011;15328;50.860;10.562;2023-07-20T03:06:36;3.28;;;2.50;;
27999;SDS011;15328;50.860;10.562;2023-07-20T03:11:37;4.60;;;2.70;;
27999;SDS011;15328;50.860;10.562;2023-07-20T03:16:37;4.40;;;2.33;;
27999;SDS011;15328;50.860;10.562;2023-07-20T03:21:37;2.92;;;2.10;;
27999;SDS011;15328;50.860;10.562;2023-07-20T03:26:40;2.80;;;2.50;;
27999;SDS011;15328;50.860;10.562;2023-07-20T03:31:41;4.33;;;2.80;;
27999;SDS011;15328;50.860;10.562;2023-07-20T03:36:41;3.47;;;2.53;;
27999;SDS011;15328;50.860;10.562;2023-07-20T03:41:42;3.70;;;2.67;;
27999;SDS011;15328;50.860;10.562;2023-07-20T03:46:43;4.13;;;2.97;;
27999;SDS011;15328;50.860;10.562;2023-07-20T03:51:44;3.13;;;2.70;;
27999;SDS011;15328;50.860;10.562;2023-07-20T03:56:44;5.32;;;3.13;;
27999;SDS011;15328;50.860;10.562;2023-07-20T04:01:44;4.57;;;3.40;;
27999;SDS011;15328;50.860;10.562;2023-07-20T04:06:45;3.93;;;3.00;;
27999;SDS011;15328;50.860;10.562;2023-07-20T04:11:46;4.15;;;2.88;;
27999;SDS011;15328;50.860;10.562;2023-07-20T04:16:46;4.32;;;2.75;;
27999;SDS011;15328;50.860;10.562;2023-07-20T04:21:47;3.10;;;2.75;;
27999;SDS011;15328;50.860;10.562;2023-07-20T04:26:47;3.57;;;2.63;;
27999;SDS011;15328;50.860;10.562;2023-07-20T04:31:48;4.73;;;3.00;;
27999;SDS011;15328;50.860;10.562;2023-07-20T04:36:48;5.90;;;5.10;;
27999;SDS011;15328;50.860;10.562;2023-07-20T04:41:48;6.60;;;4.38;;
27999;SDS011;15328;50.860;10.562;2023-07-20T04:46:49;4.78;;;3.65;;
27999;SDS011;15328;50.860;10.562;2023-07-20T04:51:49;6.27;;;4.80;;
27999;SDS011;15328;50.860;10.562;2023-07-20T04:56:49;4.23;;;3.80;;
27999;SDS011;15328;50.860;10.562;2023-07-20T05:01:50;5.97;;;3.70;;
27999;SDS011;15328;50.860;10.562;2023-07-20T05:06:50;5.67;;;3.67;;
27999;SDS011;15328;50.860;10.562;2023-07-20T05:11:50;5.55;;;3.65;;
27999;SDS011;15328;50.860;10.562;2023-07-20T05:16:51;4.28;;;3.72;;
27999;SDS011;15328;50.860;10.562;2023-07-20T05:21:51;5.30;;;3.63;;
27999;SDS011;15328;50.860;10.562;2023-07-20T05:26:51;5.28;;;3.40;;
27999;SDS011;15328;50.860;10.562;2023-07-20T05:31:52;3.83;;;2.72;;
27999;SDS011;15328;50.860;10.562;2023-07-20T05:36:52;4.80;;;3.07;;
27999;SDS011;15328;50.860;10.562;2023-07-20T05:41:52;3.63;;;2.83;;
27999;SDS011;15328;50.860;10.562;2023-07-20T05:46:53;4.87;;;3.40;;
27999;SDS011;15328;50.860;10.562;2023-07-20T05:51:54;2.93;;;2.43;;
27999;SDS011;15328;50.860;10.562;2023-07-20T05:56:55;4.88;;;2.50;;
27999;SDS011;15328;50.860;10.562;2023-07-20T06:01:56;4.20;;;2.85;;
27999;SDS011;15328;50.860;10.562;2023-07-20T06:06:56;4.23;;;3.17;;
27999;SDS011;15328;50.860;10.562;2023-07-20T06:11:56;5.03;;;3.47;;
27999;SDS011;15328;50.860;10.562;2023-07-20T06:16:57;5.30;;;2.97;;
27999;SDS011;15328;50.860;10.562;2023-07-20T06:21:57;3.60;;;2.72;;
27999;SDS011;15328;50.860;10.562;2023-07-20T06:26:57;5.43;;;3.65;;
27999;SDS011;15328;50.860;10.562;2023-07-20T06:31:57;4.40;;;2.80;;
27999;SDS011;15328;50.860;10.562;2023-07-20T06:36:58;4.30;;;3.20;;
27999;SDS011;15328;50.860;10.562;2023-07-20T06:41:58;4.05;;;3.00;;
27999;SDS011;15328;50.860;10.562;2023-07-20T06:46:59;4.87;;;3.70;;
27999;SDS011;15328;50.860;10.562;2023-07-20T06:51:59;4.97;;;3.53;;
27999;SDS011;15328;50.860;10.562;2023-07-20T06:57:00;3.53;;;2.67;;
27999;SDS011;15328;50.860;10.562;2023-07-20T07:02:00;5.07;;;3.05;;
27999;SDS011;15328;50.860;10.562;2023-07-20T07:07:01;3.53;;;3.00;;
27999;SDS011;15328;50.860;10.562;2023-07-20T07:12:02;4.90;;;3.35;;
27999;SDS011;15328;50.860;10.562;2023-07-20T07:17:03;4.85;;;3.55;;
27999;SDS011;15328;50.860;10.562;2023-07-20T07:22:04;4.53;;;3.70;;
27999;SDS011;15328;50.860;10.562;2023-07-20T07:27:04;4.15;;;3.67;;
27999;SDS011;15328;50.860;10.562;2023-07-20T07:32:05;6.43;;;3.97;;
27999;SDS011;15328;50.860;10.562;2023-07-20T07:37:06;5.13;;;3.53;;
27999;SDS011;15328;50.860;10.562;2023-07-20T07:42:06;5.22;;;3.35;;
27999;SDS011;15328;50.860;10.562;2023-07-20T07:47:07;4.43;;;3.50;;
27999;SDS011;15328;50.860;10.562;2023-07-20T07:52:07;4.13;;;2.90;;
27999;SDS011;15328;50.860;10.562;2023-07-20T07:57:08;3.00;;;2.70;;
27999;SDS011;15328;50.860;10.562;2023-07-20T08:02:08;2.90;;;2.13;;
27999;SDS011;15328;50.860;10.562;2023-07-20T08:07:09;4.80;;;2.55;;
27999;SDS011;15328;50.860;10.562;2023-07-20T08:12:09;2.53;;;2.20;;
27999;SDS011;15328;50.860;10.562;2023-07-20T08:17:10;5.43;;;2.30;;
27999;SDS011;15328;50.860;10.562;2023-07-20T08:22:10;3.27;;;2.27;;
27999;SDS011;15328;50.860;10.562;2023-07-20T08:27:12;3.10;;;2.10;;
27999;SDS011;15328;50.860;10.562;2023-07-20T08:32:12;4.38;;;2.40;;
27999;SDS011;15328;50.860;10.562;2023-07-20T08:37:14;5.47;;;2.90;;
27999;SDS011;15328;50.860;10.562;2023-07-20T08:42:14;5.17;;;2.73;;
27999;SDS011;15328;50.860;10.562;2023-07-20T08:47:16;5.38;;;3.28;;
27999;SDS011;15328;50.860;10.562;2023-07-20T08:52:16;4.45;;;2.63;;
27999;SDS011;15328;50.860;10.562;2023-07-20T08:57:17;3.28;;;2.47;;
27999;SDS011;15328;50.860;10.562;2023-07-20T09:02:18;5.53;;;2.47;;
27999;SDS011;15328;50.860;10.562;2023-07-20T09:07:20;5.07;;;2.45;;
27999;SDS011;15328;50.860;10.562;2023-07-20T09:12:21;6.43;;;2.95;;
27999;SDS011;15328;50.860;10.562;2023-07-20T09:17:22;3.17;;;2.60;;
27999;SDS011;15328;50.860;10.562;2023-07-20T09:22:29;3.33;;;2.30;;
27999;SDS011;15328;50.860;10.562;2023-07-20T09:27:34;3.13;;;2.10;;
27999;SDS011;15328;50.860;10.562;2023-07-20T09:32:46;3.58;;;2.20;;
27999;SDS011;15328;50.860;10.562;2023-07-20T09:38:00;3.15;;;2.00;;
27999;SDS011;15328;50.860;10.562;2023-07-20T09:43:01;2.85;;;1.95;;
27999;SDS011;15328;50.860;10.562;2023-07-20T09:48:04;4.90;;;2.15;;
27999;SDS011;15328;50.860;10.562;2023-07-20T09:53:06;5.18;;;1.90;;
27999;SDS011;15328;50.860;10.562;2023-07-20T09:58:10;2.70;;;1.70;;
27999;SDS011;15328;50.860;10.562;2023-07-20T10:03:11;2.55;;;1.90;;
27999;SDS011;15328;50.860;10.562;2023-07-20T10:08:16;2.92;;;1.90;;
27999;SDS011;15328;50.860;10.562;2023-07-20T10:13:21;5.03;;;2.10;;
27999;SDS011;15328;50.860;10.562;2023-07-20T10:18:30;4.35;;;1.98;;
27999;SDS011;15328;50.860;10.562;2023-07-20T10:23:34;4.32;;;2.10;;
27999;SDS011;15328;50.860;10.562;2023-07-20T10:28:36;2.97;;;1.30;;
27999;SDS011;15328;50.860;10.562;2023-07-20T10:33:37;4.60;;;1.67;;
27999;SDS011;15328;50.860;10.562;2023-07-20T10:43:48;2.17;;;1.83;;
27999;SDS011;15328;50.860;10.562;2023-07-20T10:48:59;2.28;;;1.60;;
27999;SDS011;15328;50.860;10.562;2023-07-20T10:54:03;2.08;;;1.67;;
27999;SDS011;15328;50.860;10.562;2023-07-20T11:09:40;2.83;;;1.90;;
27999;SDS011;15328;50.860;10.562;2023-07-20T11:14:55;2.42;;;1.60;;
27999;SDS011;15328;50.860;10.562;2023-07-20T11:19:57;2.22;;;1.50;;
27999;SDS011;15328;50.860;10.562;2023-07-20T11:25:00;3.05;;;1.58;;
27999;SDS011;15328;50.860;10.562;2023-07-20T11:30:01;4.88;;;1.70;;
27999;SDS011;15328;50.860;10.562;2023-07-20T11:35:01;2.85;;;1.60;;
27999;SDS011;15328;50.860;10.562;2023-07-20T11:40:02;2.40;;;1.77;;
27999;SDS011;15328;50.860;10.562;2023-07-20T11:45:03;2.03;;;1.45;;
27999;SDS011;15328;50.860;10.562;2023-07-20T11:50:05;2.10;;;1.40;;
27999;SDS011;15328;50.860;10.562;2023-07-20T11:55:06;2.38;;;1.52;;
27999;SDS011;15328;50.860;10.562;2023-07-20T12:00:07;1.80;;;1.30;;
27999;SDS011;15328;50.860;10.562;2023-07-20T12:05:11;1.83;;;1.20;;
27999;SDS011;15328;50.860;10.562;2023-07-20T12:10:13;1.52;;;1.10;;
27999;SDS011;15328;50.860;10.562;2023-07-20T12:15:14;2.13;;;1.30;;
27999;SDS011;15328;50.860;10.562;2023-07-20T12:20:26;1.17;;;1.08;;
27999;SDS011;15328;50.860;10.562;2023-07-20T12:25:39;2.08;;;1.17;;
27999;SDS011;15328;50.860;10.562;2023-07-20T12:30:43;2.67;;;0.93;;
27999;SDS011;15328;50.860;10.562;2023-07-20T12:35:45;2.25;;;1.05;;
27999;SDS011;15328;50.860;10.562;2023-07-20T12:40:45;1.50;;;1.02;;
27999;SDS011;15328;50.860;10.562;2023-07-20T12:45:46;1.80;;;1.03;;
27999;SDS011;15328;50.860;10.562;2023-07-20T12:50:47;1.17;;;1.08;;
27999;SDS011;15328;50.860;10.562;2023-07-20T12:55:47;1.77;;;1.25;;
27999;SDS011;15328;50.860;10.562;2023-07-20T13:00:47;7.05;;;1.30;;
27999;SDS011;15328;50.860;10.562;2023-07-20T13:05:48;23.17;;;2.72;;
27999;SDS011;15328;50.860;10.562;2023-07-20T13:10:48;11.52;;;2.03;;
27999;SDS011;15328;50.860;10.562;2023-07-20T13:15:49;1.75;;;1.17;;
27999;SDS011;15328;50.860;10.562;2023-07-20T13:20:50;2.15;;;1.10;;
27999;SDS011;15328;50.860;10.562;2023-07-20T13:25:50;2.27;;;1.20;;
27999;SDS011;15328;50.860;10.562;2023-07-20T13:30:50;1.20;;;0.80;;
27999;SDS011;15328;50.860;10.562;2023-07-20T13:35:51;1.00;;;0.90;;
27999;SDS011;15328;50.860;10.562;2023-07-20T13:40:51;0.90;;;0.80;;
27999;SDS011;15328;50.860;10.562;2023-07-20T13:45:51;1.10;;;0.80;;
27999;SDS011;15328;50.860;10.562;2023-07-20T13:50:52;1.90;;;1.00;;
27999;SDS011;15328;50.860;10.562;2023-07-20T13:55:53;1.80;;;1.00;;
27999;SDS011;15328;50.860;10.562;2023-07-20T14:00:54;1.00;;;0.90;;
27999;SDS011;15328;50.860;10.562;2023-07-20T14:05:55;1.27;;;0.95;;
27999;SDS011;15328;50.860;10.562;2023-07-20T14:10:56;1.63;;;1.10;;
27999;SDS011;15328;50.860;10.562;2023-07-20T14:15:56;2.10;;;0.88;;
27999;SDS011;15328;50.860;10.562;2023-07-20T14:20:57;2.77;;;1.40;;
27999;SDS011;15328;50.860;10.562;2023-07-20T14:25:57;3.17;;;1.60;;
27999;SDS011;15328;50.860;10.562;2023-07-20T14:30:58;2.47;;;1.65;;
27999;SDS011;15328;50.860;10.562;2023-07-20T14:35:59;1.65;;;1.27;;
27999;SDS011;15328;50.860;10.562;2023-07-20T14:41:01;1.92;;;1.38;;
27999;SDS011;15328;50.860;10.562;2023-07-20T14:46:02;3.70;;;1.50;;
27999;SDS011;15328;50.860;10.562;2023-07-20T14:51:02;5.30;;;1.87;;
27999;SDS011;15328;50.860;10.562;2023-07-20T14:56:03;2.67;;;1.60;;
27999;SDS011;15328;50.860;10.562;2023-07-20T15:01:04;2.30;;;1.52;;
27999;SDS011;15328;50.860;10.562;2023-07-20T15:06:04;2.03;;;1.48;;
27999;SDS011;15328;50.860;10.562;2023-07-20T15:11:11;1.90;;;1.40;;
27999;SDS011;15328;50.860;10.562;2023-07-20T15:16:11;1.70;;;1.27;;
27999;SDS011;15328;50.860;10.562;2023-07-20T15:21:11;1.70;;;1.40;;
27999;SDS011;15328;50.860;10.562;2023-07-20T15:26:12;1.73;;;1.50;;
27999;SDS011;15328;50.860;10.562;2023-07-20T15:31:12;1.45;;;1.30;;
27999;SDS011;15328;50.860;10.562;2023-07-20T15:36:13;1.70;;;1.20;;
27999;SDS011;15328;50.860;10.562;2023-07-20T15:41:14;3.05;;;1.40;;
27999;SDS011;15328;50.860;10.562;2023-07-20T15:51:40;1.40;;;1.20;;
27999;SDS011;15328;50.860;10.562;2023-07-20T15:56:42;1.48;;;1.20;;
27999;SDS011;15328;50.860;10.562;2023-07-20T16:01:43;1.50;;;1.20;;
27999;SDS011;15328;50.860;10.562;2023-07-20T16:06:43;1.30;;;1.00;;
27999;SDS011;15328;50.860;10.562;2023-07-20T16:11:44;2.50;;;0.90;;
27999;SDS011;15328;50.860;10.562;2023-07-20T16:16:44;1.15;;;0.80;;
27999;SDS011;15328;50.860;10.562;2023-07-20T16:21:45;1.17;;;1.00;;
27999;SDS011;15328;50.860;10.562;2023-07-20T16:26:45;2.05;;;0.95;;
27999;SDS011;15328;50.860;10.562;2023-07-20T16:31:45;1.20;;;0.83;;
27999;SDS011;15328;50.860;10.562;2023-07-20T16:36:46;1.10;;;0.80;;
27999;SDS011;15328;50.860;10.562;2023-07-20T16:41:46;1.53;;;0.67;;
27999;SDS011;15328;50.860;10.562;2023-07-20T16:46:46;0.90;;;0.70;;
27999;SDS011;15328;50.860;10.562;2023-07-20T16:51:47;1.17;;;0.70;;
27999;SDS011;15328;50.860;10.562;2023-07-20T16:56:47;1.37;;;0.80;;
27999;SDS011;15328;50.860;10.562;2023-07-20T17:01:47;1.33;;;0.80;;
27999;SDS011;15328;50.860;10.562;2023-07-20T17:06:48;1.10;;;0.70;;
27999;SDS011;15328;50.860;10.562;2023-07-20T17:11:48;1.60;;;0.95;;
27999;SDS011;15328;50.860;10.562;2023-07-20T17:16:49;0.82;;;0.60;;
27999;SDS011;15328;50.860;10.562;2023-07-20T17:21:49;0.80;;;0.70;;
27999;SDS011;15328;50.860;10.562;2023-07-20T17:26:50;0.80;;;0.80;;
27999;SDS011;15328;50.860;10.562;2023-07-20T17:31:50;1.73;;;0.70;;
27999;SDS011;15328;50.860;10.562;2023-07-20T17:36:50;0.75;;;0.70;;
27999;SDS011;15328;50.860;10.562;2023-07-20T17:41:51;1.10;;;0.80;;
27999;SDS011;15328;50.860;10.562;2023-07-20T17:46:52;0.68;;;0.60;;
27999;SDS011;15328;50.860;10.562;2023-07-20T17:51:52;1.30;;;0.90;;
27999;SDS011;15328;50.860;10.562;2023-07-20T17:56:52;0.70;;;0.60;;
27999;SDS011;15328;50.860;10.562;2023-07-20T18:01:53;1.87;;;0.80;;
27999;SDS011;15328;50.860;10.562;2023-07-20T18:06:53;1.10;;;0.90;;
27999;SDS011;15328;50.860;10.562;2023-07-20T18:11:53;1.23;;;0.80;;
27999;SDS011;15328;50.860;10.562;2023-07-20T18:16:54;1.45;;;0.82;;
27999;SDS011;15328;50.860;10.562;2023-07-20T18:21:55;1.30;;;0.80;;
27999;SDS011;15328;50.860;10.562;2023-07-20T18:26:55;1.25;;;0.82;;
27999;SDS011;15328;50.860;10.562;2023-07-20T18:31:56;1.33;;;0.67;;
27999;SDS011;15328;50.860;10.562;2023-07-20T18:36:56;1.15;;;0.70;;
27999;SDS011;15328;50.860;10.562;2023-07-20T18:41:57;0.68;;;0.60;;
27999;SDS011;15328;50.860;10.562;2023-07-20T18:46:59;1.48;;;0.77;;
27999;SDS011;15328;50.860;10.562;2023-07-20T18:52:00;2.35;;;1.70;;
27999;SDS011;15328;50.860;10.562;2023-07-20T18:57:01;1.67;;;1.00;;
27999;SDS011;15328;50.860;10.562;2023-07-20T19:02:01;0.97;;;0.80;;
27999;SDS011;15328;50.860;10.562;2023-07-20T19:07:02;1.55;;;0.80;;
27999;SDS011;15328;50.860;10.562;2023-07-20T19:12:02;0.75;;;0.70;;
27999;SDS011;15328;50.860;10.562;2023-07-20T19:17:03;1.15;;;0.85;;
27999;SDS011;15328;50.860;10.562;2023-07-20T19:22:04;0.80;;;0.80;;
27999;SDS011;15328;50.860;10.562;2023-07-20T19:27:04;0.88;;;0.88;;
27999;SDS011;15328;50.860;10.562;2023-07-20T19:32:05;1.25;;;0.98;;
27999;SDS011;15328;50.860;10.562;2023-07-20T19:37:06;1.20;;;1.00;;
27999;SDS011;15328;50.860;10.562;2023-07-20T19:42:07;1.20;;;0.90;;
27999;SDS011;15328;50.860;10.562;2023-07-20T19:47:07;1.10;;;1.00;;
27999;SDS011;15328;50.860;10.562;2023-07-20T19:52:08;1.42;;;1.08;;
27999;SDS011;15328;50.860;10.562;2023-07-20T19:57:08;4.00;;;1.50;;
27999;SDS011;15328;50.860;10.562;2023-07-20T20:02:08;1.60;;;0.90;;
27999;SDS011;15328;50.860;10.562;2023-07-20T20:07:09;1.30;;;1.00;;
27999;SDS011;15328;50.860;10.562;2023-07-20T20:12:12;0.95;;;0.80;;
27999;SDS011;15328;50.860;10.562;2023-07-20T20:17:12;2.72;;;0.88;;
27999;SDS011;15328;50.860;10.562;2023-07-20T20:22:13;7.38;;;6.00;;
27999;SDS011;15328;50.860;10.562;2023-07-20T20:27:13;3.03;;;2.27;;
27999;SDS011;15328;50.860;10.562;2023-07-20T20:32:13;1.33;;;1.10;;
27999;SDS011;15328;50.860;10.562;2023-07-20T20:37:14;1.08;;;0.88;;
27999;SDS011;15328;50.860;10.562;2023-07-20T20:42:15;1.73;;;0.98;;
27999;SDS011;15328;50.860;10.562;2023-07-20T20:47:15;2.28;;;0.90;;
27999;SDS011;15328;50.860;10.562;2023-07-20T20:52:16;0.90;;;0.73;;
27999;SDS011;15328;50.860;10.562;2023-07-20T20:57:17;0.85;;;0.70;;
27999;SDS011;15328;50.860;10.562;2023-07-20T21:02:17;0.90;;;0.80;;
27999;SDS011;15328;50.860;10.562;2023-07-20T21:07:18;1.25;;;0.70;;
27999;SDS011;15328;50.860;10.562;2023-07-20T21:12:18;0.80;;;0.70;;
27999;SDS011;15328;50.860;10.562;2023-07-20T21:17:19;0.90;;;0.70;;
27999;SDS011;15328;50.860;10.562;2023-07-20T21:22:19;1.10;;;0.87;;
27999;SDS011;15328;50.860;10.562;2023-07-20T21:27:19;1.43;;;0.77;;
27999;SDS011;15328;50.860;10.562;2023-07-20T21:32:20;1.10;;;0.98;;
27999;SDS011;15328;50.860;10.562;2023-07-20T21:37:20;1.10;;;0.80;;
27999;SDS011;15328;50.860;10.562;2023-07-20T21:42:21;1.17;;;0.88;;
27999;SDS011;15328;50.860;10.562;2023-07-20T21:47:21;1.23;;;0.82;;
27999;SDS011;15328;50.860;10.562;2023-07-20T21:52:21;1.40;;;0.90;;
27999;SDS011;15328;50.860;10.562;2023-07-20T21:57:22;2.38;;;1.05;;
27999;SDS011;15328;50.860;10.562;2023-07-20T22:02:22;1.87;;;1.00;;
27999;SDS011;15328;50.860;10.562;2023-07-20T22:07:23;1.33;;;0.65;;
27999;SDS011;15328;50.860;10.562;2023-07-20T22:12:23;0.87;;;0.80;;
27999;SDS011;15328;50.860;10.562;2023-07-20T22:17:23;1.53;;;0.90;;
27999;SDS011;15328;50.860;10.562;2023-07-20T22:22:24;1.40;;;0.97;;
27999;SDS011;15328;50.860;10.562;2023-07-20T22:27:24;1.00;;;0.80;;
27999;SDS011;15328;50.860;10.562;2023-07-20T22:32:24;1.27;;;0.88;;
27999;SDS011;15328;50.860;10.562;2023-07-20T22:37:25;1.10;;;0.90;;
27999;SDS011;15328;50.860;10.562;2023-07-20T22:42:25;1.77;;;0.80;;
27999;SDS011;15328;50.860;10.562;2023-07-20T22:47:26;1.13;;;1.00;;
27999;SDS011;15328;50.860;10.562;2023-07-20T22:52:27;1.00;;;0.90;;
27999;SDS011;15328;50.860;10.562;2023-07-20T22:57:28;2.55;;;1.20;;
27999;SDS011;15328;50.860;10.562;2023-07-20T23:02:28;1.65;;;0.90;;
27999;SDS011;15328;50.860;10.562;2023-07-20T23:07:28;1.10;;;0.80;;
27999;SDS011;15328;50.860;10.562;2023-07-20T23:12:29;3.03;;;1.08;;
27999;SDS011;15328;50.860;10.562;2023-07-20T23:17:29;2.23;;;1.00;;
27999;SDS011;15328;50.860;10.562;2023-07-20T23:22:29;1.45;;;0.75;;
27999;SDS011;15328;50.860;10.562;2023-07-20T23:27:32;1.30;;;0.80;;
27999;SDS011;15328;50.860;10.562;2023-07-20T23:32:34;0.98;;;0.80;;
27999;SDS011;15328;50.860;10.562;2023-07-20T23:37:35;1.53;;;1.00;;
27999;SDS011;15328;50.860;10.562;2023-07-20T23:42:37;1.73;;;0.93;;
27999;SDS011;15328;50.860;10.562;2023-07-20T23:47:41;0.98;;;0.80;;
27999;SDS011;15328;50.860;10.562;2023-07-20T23:52:42;1.88;;;0.95;;
27999;SDS011;15328;50.860;10.562;2023-07-20T23:57:43;1.10;;;0.88;;
